Wausa, NE

9:22 AM CDT on July 28, 2014 (GMT -0500)
Stefan Memorial (KOFK) Elev 1549 ft | 41.99 °N, 97.44 °W | Change Station

Current weather conditions updated 26 minutes ago

Clear
Clear
64 °F
Feels Like 64 °F
N
9
Wind Variable Wind from North

Today is forecast to be Cooler than yesterday.

Today
High -- | Low -- °F
--% Chance of Precip.
Yesterday
High -- | Low -- °F
Precip. -- in
6:18 AM 8:54 PM
New Moon, 2% visible
Pressure 30.28 in
Visibility 10.0 miles
Clouds Clear
Dew Point 55 °F
Humidity 73%
Rainfall 0.00 in
Snow Depth Not available.
UV 3 out of 12
Pollen 6.40 out of 12
Air Quality Not available.
Flu Activity Not available.
METAR KOFK 281356Z AUTO 35008KT 10SM CLR 18/13 A3029 RMK AO2 SLP252 T01780128

More Conditions Fewer Conditions

Pressure 30.28 in
Visibility 10.0 miles
Clouds Clear
Dew Point 55 °F
Humidity 73%
Rainfall 0.00 in
Snow Depth Not available.
UV 3 out of 12
Pollen 6.40 out of 12
Air Quality Not available.
Flu Activity Not available.
METAR KOFK 281356Z AUTO 35008KT 10SM CLR 18/13 A3029 RMK AO2 SLP252 T01780128

More Conditions Fewer Conditions

10-Day Weather Forecast

Almanac

Astronomy

Jul. 28, 2014 Rise Set
Actual Time 6:18 AM CDT 8:54 PM CDT
Civil Twilight 5:46 AM CDT 9:26 PM CDT
Nautical Twilight 5:05 AM CDT 10:06 PM CDT
Astronomical Twilight 4:19 AM CDT 10:52 PM CDT
Moon 8:04 AM CDT 9:32 PM CDT
Length of Visible Light 15h 40m
Length of Day
14h 36m
Tomorrow will be 2m 4s shorter.
New Moon, 2% of the Moon is Illuminated
Today
New Moon
Aug 3
First Quarter
Aug 10
Full
Aug 17
Last Quarter
Aug 25
New

Today's Extremes

State Highs State Lows

Community

WunderPhotos

Upload Photos

1,738,337 photos uploaded!

Nearby

Snow Depth

Station Depth Elevation
No new snow has been reported.

Earthquake Activity

City Distance Mag. Time & Date
No recent earthquake activity has been reported nearby.
Minimum magnitude displayed is 2.5.

Coastal Water Temperatures

Place Temperature
No Stations Reporting

Nearby Weather Stations

There are no personal weather stations in this area.